Pitt Meadows, British Columbia

16:10 PDT le 24 août 2016 (GMT -0700)
Pitt Meadows Casa de Douglas | | Change Station

Alt. 66 ft 49.22 °N, 122.69 °W | Updated 4 minutes ago

Partly Cloudy
Partiellement nuageux
90.0 ° F
Paraît 90 ° F
N
3.8
Vent Variable Vent de SO

Aujourd'hui
Haut(e) -- | Bas -- ° F
--% Risque de précip.
Hier
Haut(e) -- | Bas -- ° F
Precip. -- pouce
Pression 30.15 pouce
Visibilité 30.0 Miles terrestres
Nuages Peu 5000 ft
indice de chaleur 90 ° F
Point de rosée 60 ° F
Humidité 37%
Précipitations 0.00 pouce
Profondeur de la couche neigeuse Non disponible.
6:16 AM 8:08 PM
Lune gibbeuse décroissante, 52% visible
METAR CYXX 242300Z 28011KT 30SM FEW050 31/11 A3014 RMK CU1 SLP208 DENSITY ALT 1800FT
Pression 30.15 pouce
Visibilité 30.0 Miles terrestres
Nuages Peu 5000 ft
indice de chaleur 90 ° F
Point de rosée 60 ° F
Humidité 37%
Précipitations 0.00 pouce
Profondeur de la couche neigeuse Non disponible.
6:16 AM 8:08 PM
Lune gibbeuse décroissante, 52% visible
METAR CYXX 242300Z 28011KT 30SM FEW050 31/11 A3014 RMK CU1 SLP208 DENSITY ALT 1800FT

10-Day Weather Forecast

Almanac

Astronomie

Aug. 24, 2016 Lever Coucher
Temps réel
Crépuscule civil
Crépuscule nautique
Crépuscule astronomique
Lune
Durée de lumière visible
Longueur du jour
Tomorrow will be .
, % of the Moon is Illuminated

Extrêmes aujourd'hui

Country Highs Country Lows

Community

WunderPhotos

Upload Photos

1,934,730 Photos téléchargées !

WunderBlog® & News

Nearby

Qualité de l'air

  Qualité de l'air Indice de la qualité de l'air Polluant
Not available.

Épaisseur de neige

Station Depth Altitude

Activité sismique

Ville Distance Mag. Time & Date
Minimum magnitude displayed is 2.5.

Températures des eaux côtières

Lieu Température

Stations

Stations météo à proximité

Emplacement de la station Température Refroidissement éolien Point de rosée Humidité Vent Precip. Alt. Mise à jour Type
                   

Watches & Warnings

There are currently no watches in effect.